Aviation Digital Data Service (ADDS)

Output produced by TAFs form (2031 UTC 20 July 2017)
found at http://www.aviationweather.gov/adds/tafs/
 
KCWA 201737Z 2018/2118 29008KT P6SM FEW020 BKN120 
     FM210100 VRB03KT P6SM SKC 
     TEMPO 2108/2112 1 1/2SM BR SCT002 
     FM211500 16007KT P6SM SKC
       
KATW 201737Z 2018/2118 30010KT P6SM SCT025 BKN120 
     FM210100 VRB03KT P6SM SCT250 
     TEMPO 2108/2112 5SM BR SCT005 
     FM211400 16005KT P6SM SKC
       
KGRB 201737Z 2018/2118 29010KT P6SM SCT030 BKN120 
     FM210100 VRB03KT P6SM SCT250 
     TEMPO 2108/2112 3SM BR SCT005 
     FM211400 16005KT P6SM SKC
       
KMSN 201740Z 2018/2118 32007KT P6SM SCT025 SCT250 
     FM202200 32006KT P6SM SCT100 
     FM210500 00000KT P6SM BKN250 
     TEMPO 2108/2112 5SM BR 
     FM211600 14006KT P6SM BKN120
       
KMKE 201836Z 2019/2124 03012KT P6SM SCT025 SCT250 
     FM202000 02005KT P6SM SCT100 
     FM211200 07005KT P6SM BKN120 
     FM211800 14007KT P6SM SCT040 BKN150 
     FM212200 13007KT P6SM VCTS SCT040CB BKN100